RKPC

Jeju International Airport

Jeju City, South Korea
TAF RKPC 211700Z 2118/2224 20005KT 7000 NSC TN18/2120Z TX25/2206Z TN19/2220Z BECMG 2123/2124 03005KT BECMG 2212/2213 17005KT TEMPO 2215/2218 4200 BR BKN025
Issued Valid From Valid To
Jun-21 @ 17:00 UTC
(an hour ago)
Jun-21 @ 18:00 UTC
(7 minutes ago)
Jun-23 @ 00:00 UTC
(-1 days ago)
Jun-21 @ 18:00 to Jun-21 @ 23:00
TAF RKPC 211700Z 2118/2224 20005KT 7000 NSC TN18/2120Z TX25/2206Z TN19/2220Z
Wind Visibility Clouds
200° at 5 knots 7,001 meters
  • No significant clouds
Becoming Jun-21 @ 23:00 to Jun-22 @ 12:00
BECMG 2123/2124 03005KT
Wind Visibility Clouds
30° at 5 knots 7,001 meters
  • No significant clouds
Becoming Jun-22 @ 12:00 to Jun-23 @ 00:00
BECMG 2212/2213 17005KT
Wind Visibility Clouds
170° at 5 knots 7,001 meters
  • No significant clouds
Temporary Jun-22 @ 15:00 to Jun-22 @ 18:00
TEMPO 2215/2218 4200 BR BKN025
Visibility Clouds Conditions
4,200 meters
  • Broken at 2,500' AGL
  • Mist
TAF RKPC 211700Z 2118/2224 20005KT 7000 NSC TN18/2120Z TX25/2206Z TN19/2220Z BECMG 2123/2124 03005KT BECMG 2212/2213 17005KT TEMPO 2215/2218 4200 BR BKN025
Issued Jun-21 @ 17:00 UTC
(an hour ago)
Valid From Jun-21 @ 18:00 UTC
(7 minutes ago)
Valid To Jun-23 @ 00:00 UTC
(-1 days ago)
Jun-21 @ 18:00 - Jun-21 @ 23:00
Wind Visibility
200° at 5 knots 7,001 meters
Clouds
  • No significant clouds
Becoming Jun-21 @ 23:00 - Jun-22 @ 12:00
Wind Visibility
30° at 5 knots 7,001 meters
Clouds
  • No significant clouds
Becoming Jun-22 @ 12:00 - Jun-23 @ 00:00
Wind Visibility
170° at 5 knots 7,001 meters
Clouds
  • No significant clouds
Temporary Jun-22 @ 15:00 - Jun-22 @ 18:00
Clouds
  • Broken at 2,500' AGL
Conditions
  • Mist